Time;durP1;ratioP1;P1;durP2;ratioP2;P2;SDS_P1;SDS_P2;PMS_P1;PMS_P2;Temp;Humidity;BMP_temperature;BMP_pressure;BME280_temperature;BME280_humidity;BME280_pressure;Samples;Min_cycle;Max_cycle;Signal;HPM_P1;HPM_P2
2023/11/14 00:01:09;;;;;;;8.32;4.28;;;;;;;10.00;100.00;100642.78;5082621;28;20589;-65
2023/11/14 00:03:34;;;;;;;9.07;4.80;;;;;;;9.99;100.00;100648.97;5083157;28;20467;-65
2023/11/14 00:05:59;;;;;;;7.90;4.70;;;;;;;10.00;100.00;100650.59;5082801;28;20100;-65
2023/11/14 00:08:25;;;;;;;6.05;4.13;;;;;;;9.97;100.00;100643.88;5085530;28;20032;-65
2023/11/14 00:10:51;;;;;;;5.80;3.63;;;;;;;9.96;100.00;100638.81;5082444;28;20032;-65
2023/11/14 00:13:17;;;;;;;9.05;4.13;;;;;;;9.93;100.00;100624.28;5082316;28;20122;-65
2023/11/14 00:15:43;;;;;;;11.57;4.32;;;;;;;9.89;100.00;100606.50;5082484;28;20032;-65
2023/11/14 00:18:09;;;;;;;8.88;3.30;;;;;;;9.92;100.00;100621.84;5083496;28;20040;-65
2023/11/14 00:20:35;;;;;;;11.45;2.92;;;;;;;9.94;100.00;100648.53;5081139;28;20032;-65
2023/11/14 00:23:01;;;;;;;7.55;3.42;;;;;;;9.93;100.00;100665.13;5083034;28;20043;-65
2023/11/14 00:25:27;;;;;;;7.55;2.83;;;;;;;9.92;100.00;100679.13;5081187;28;20103;-65
2023/11/14 00:27:52;;;;;;;4.90;2.65;;;;;;;9.88;100.00;100681.16;5082754;28;20035;-65
2023/11/14 00:30:18;;;;;;;8.50;2.83;;;;;;;9.89;100.00;100672.41;5079946;28;21657;-65
2023/11/14 00:32:44;;;;;;;4.25;2.45;;;;;;;9.89;100.00;100680.22;5082355;28;20572;-65
2023/11/14 00:35:10;;;;;;;5.60;1.90;;;;;;;9.89;100.00;100676.78;5087861;28;20060;-65
2023/11/14 00:37:36;;;;;;;11.23;3.00;;;;;;;9.87;100.00;100670.88;5091047;28;20074;-65
2023/11/14 00:40:03;;;;;;;7.85;3.13;;;;;;;9.83;100.00;100672.13;5091145;28;20028;-65
2023/11/14 00:42:29;;;;;;;6.13;2.47;;;;;;;9.78;100.00;100650.88;5090060;28;20039;-65
2023/11/14 00:44:55;;;;;;;5.70;2.13;;;;;;;9.71;100.00;100649.75;5091498;28;20032;-65
2023/11/14 00:47:21;;;;;;;3.75;2.17;;;;;;;9.70;100.00;100654.13;5089389;28;20036;-65
2023/11/14 00:49:46;;;;;;;5.05;2.30;;;;;;;9.66;100.00;100660.56;5086769;28;20036;-65
2023/11/14 00:52:12;;;;;;;5.15;2.13;;;;;;;9.61;100.00;100663.56;5089801;28;20112;-65
2023/11/14 00:54:38;;;;;;;7.72;2.58;;;;;;;9.58;100.00;100653.44;5086860;28;20028;-65
2023/11/14 00:57:04;;;;;;;6.25;1.95;;;;;;;9.57;100.00;100646.56;5082284;28;20039;-65
2023/11/14 00:59:29;;;;;;;5.93;2.08;;;;;;;9.53;100.00;100619.19;5081979;28;20389;-65
2023/11/14 01:01:58;;;;;;;4.28;1.80;;;;;;;9.41;100.00;100596.88;5085625;28;20020;-65
2023/11/14 01:04:24;;;;;;;4.30;1.95;;;;;;;9.25;100.00;100599.16;5082412;28;20035;-65
2023/11/14 01:06:50;;;;;;;3.97;1.92;;;;;;;9.14;100.00;100604.44;5079516;28;21089;-65
2023/11/14 01:09:15;;;;;;;3.60;1.67;;;;;;;9.07;100.00;100611.13;5082254;28;20089;-65
2023/11/14 01:11:41;;;;;;;6.35;2.85;;;;;;;9.04;100.00;100637.38;5080954;28;20028;-65
2023/11/14 01:14:06;;;;;;;5.43;2.92;;;;;;;8.99;100.00;100628.19;5081786;28;20039;-65
2023/11/14 01:16:32;;;;;;;8.40;3.55;;;;;;;8.96;100.00;100620.69;5082449;28;20071;-65
2023/11/14 01:18:57;;;;;;;7.07;2.78;;;;;;;8.91;100.00;100651.44;5082901;28;20481;-64
2023/11/14 01:21:23;;;;;;;5.93;3.22;;;;;;;8.84;100.00;100657.25;5081029;28;20170;-65
2023/11/14 01:23:48;;;;;;;5.82;2.60;;;;;;;8.83;100.00;100651.25;5082991;28;20035;-65
2023/11/14 01:26:14;;;;;;;6.00;2.80;;;;;;;8.85;100.00;100649.34;5084962;28;20024;-65
2023/11/14 01:28:41;;;;;;;6.57;3.00;;;;;;;8.85;100.00;100653.72;5090422;28;20028;-65
2023/11/14 01:31:07;;;;;;;4.65;2.40;;;;;;;8.79;100.00;100649.84;5090738;28;20050;-65
2023/11/14 01:33:32;;;;;;;7.45;2.72;;;;;;;8.78;100.00;100650.81;5089870;28;20488;-65
2023/11/14 01:35:58;;;;;;;5.10;2.15;;;;;;;8.74;100.00;100639.03;5091111;28;20032;-65
2023/11/14 01:38:23;;;;;;;4.70;2.50;;;;;;;8.69;100.00;100635.16;5090158;28;20425;-65
2023/11/14 01:40:50;;;;;;;7.82;2.45;;;;;;;8.64;100.00;100646.75;5090939;28;20047;-65
2023/11/14 01:43:16;;;;;;;4.65;2.40;;;;;;;8.60;100.00;100644.53;5088319;28;20110;-65
2023/11/14 01:45:41;;;;;;;4.85;1.98;;;;;;;8.60;100.00;100639.34;5080519;28;20107;-65
2023/11/14 01:48:07;;;;;;;3.42;2.00;;;;;;;8.63;100.00;100636.50;5081725;28;20491;-65
2023/11/14 01:50:33;;;;;;;3.17;1.83;;;;;;;8.72;100.00;100634.91;5079499;28;20118;-65
2023/11/14 01:52:59;;;;;;;4.75;2.15;;;;;;;8.76;100.00;100623.31;5079750;28;20040;-65
2023/11/14 01:55:25;;;;;;;6.10;1.58;;;;;;;8.70;100.00;100618.63;5081299;28;20028;-65
2023/11/14 01:57:53;;;;;;;9.32;1.85;;;;;;;8.60;100.00;100613.38;5082675;28;20047;-65
2023/11/14 02:00:19;;;;;;;8.23;1.77;;;;;;;8.56;100.00;100618.00;5081598;28;20434;-65
2023/11/14 02:02:45;;;;;;;3.78;1.50;;;;;;;8.47;100.00;100603.19;5078649;28;20016;-65
2023/11/14 02:05:11;;;;;;;8.15;2.80;;;;;;;8.41;100.00;100602.88;5080854;28;20071;-65
2023/11/14 02:07:39;;;;;;;8.10;2.38;;;;;;;8.41;100.00;100595.09;5081894;28;20071;-65
2023/11/14 02:10:05;;;;;;;6.68;2.78;;;;;;;8.34;100.00;100584.41;5079816;28;20536;-65
2023/11/14 02:12:34;;;;;;;6.40;1.80;;;;;;;8.29;100.00;100589.09;5077637;28;20043;-65
2023/11/14 02:15:04;;;;;;;5.10;2.03;;;;;;;8.23;100.00;100582.66;5079327;28;20429;-65
2023/11/14 02:17:29;;;;;;;7.47;2.15;;;;;;;8.22;100.00;100583.59;5079998;28;20028;-65
2023/11/14 02:19:55;;;;;;;5.30;2.67;;;;;;;8.15;100.00;100579.03;5080426;28;20051;-65
2023/11/14 02:22:22;;;;;;;5.93;2.80;;;;;;;8.10;100.00;100597.56;5079918;28;20507;-65
2023/11/14 02:24:51;;;;;;;7.40;1.40;;;;;;;8.06;100.00;100606.56;5078455;28;20039;-65
2023/11/14 02:27:19;;;;;;;4.93;1.98;;;;;;;8.10;100.00;100614.91;5080150;28;20024;-65
2023/11/14 02:29:46;;;;;;;4.78;2.05;;;;;;;8.15;100.00;100611.00;5079944;28;20035;-65
2023/11/14 02:32:11;;;;;;;4.53;1.60;;;;;;;8.27;100.00;100607.41;5080653;28;20039;-65
2023/11/14 02:34:37;;;;;;;9.93;1.60;;;;;;;8.36;100.00;100597.25;5080412;28;20024;-65
2023/11/14 02:37:03;;;;;;;5.13;2.28;;;;;;;8.38;100.00;100590.97;5079853;28;20032;-65
2023/11/14 02:39:30;;;;;;;3.45;2.03;;;;;;;8.41;100.00;100595.91;5078633;28;20040;-65
2023/11/14 02:41:56;;;;;;;4.20;2.13;;;;;;;8.43;100.00;100583.63;5080371;28;20067;-65
2023/11/14 02:44:21;;;;;;;4.88;1.77;;;;;;;8.43;100.00;100585.41;5078679;28;20115;-65
2023/11/14 02:46:47;;;;;;;4.32;2.03;;;;;;;8.44;100.00;100587.06;5080371;28;20115;-65
2023/11/14 02:49:36;;;;;;;3.55;1.52;;;;;;;8.45;100.00;100584.34;5080695;28;20043;-65
2023/11/14 02:52:03;;;;;;;3.33;1.63;;;;;;;8.47;100.00;100598.00;5080190;28;20028;-65
2023/11/14 02:54:28;;;;;;;3.13;1.83;;;;;;;8.51;100.00;100603.75;5078781;28;20039;-65
2023/11/14 02:56:53;;;;;;;3.90;2.15;;;;;;;8.53;100.00;100602.66;5080453;28;20088;-65
2023/11/14 02:59:19;;;;;;;6.97;2.60;;;;;;;8.60;100.00;100615.97;5079999;28;20636;-65
2023/11/14 03:01:44;;;;;;;4.18;2.25;;;;;;;8.67;100.00;100624.91;5081968;28;20047;-65
2023/11/14 03:04:10;;;;;;;5.78;2.30;;;;;;;8.75;100.00;100619.88;5079849;28;20051;-65
2023/11/14 03:06:39;;;;;;;6.13;2.17;;;;;;;8.79;100.00;100629.06;5078459;28;20056;-65
2023/11/14 03:09:05;;;;;;;3.63;1.50;;;;;;;8.86;100.00;100630.19;5079996;28;20060;-65
2023/11/14 03:11:30;;;;;;;2.88;1.85;;;;;;;8.89;100.00;100616.13;5080281;28;20064;-65
2023/11/14 03:13:56;;;;;;;2.22;1.40;;;;;;;8.91;100.00;100615.03;5080366;28;20082;-65
2023/11/14 03:16:22;;;;;;;3.58;2.17;;;;;;;8.89;100.00;100603.97;5081527;28;20094;-65
2023/11/14 03:18:47;;;;;;;4.53;2.50;;;;;;;8.92;100.00;100603.69;5079941;28;20115;-65
2023/11/14 03:21:15;;;;;;;3.90;1.85;;;;;;;8.96;100.00;100588.66;5080388;28;20036;-65
2023/11/14 03:23:42;;;;;;;3.67;1.70;;;;;;;8.99;100.00;100578.00;5080918;28;20050;-65
2023/11/14 03:26:08;;;;;;;4.18;1.50;;;;;;;8.99;100.00;100563.22;5084601;28;20093;-65
2023/11/14 03:28:33;;;;;;;5.88;2.03;;;;;;;8.97;100.00;100575.56;5083670;28;20031;-65
2023/11/14 03:30:59;;;;;;;5.95;2.30;;;;;;;8.98;100.00;100577.16;5090331;28;20027;-65
2023/11/14 03:33:24;;;;;;;4.22;1.77;;;;;;;9.02;100.00;100576.91;5093828;28;20449;-65
2023/11/14 03:35:50;;;;;;;4.85;2.05;;;;;;;9.07;100.00;100577.34;5090000;28;20028;-65
2023/11/14 03:38:16;;;;;;;4.00;1.80;;;;;;;9.09;100.00;100589.25;5091019;28;20036;-65
2023/11/14 03:40:42;;;;;;;3.92;1.95;;;;;;;9.11;100.00;100607.31;5087052;28;20427;-65
2023/11/14 03:43:08;;;;;;;7.35;1.88;;;;;;;9.09;100.00;100594.44;5083771;28;20028;-65
2023/11/14 03:45:34;;;;;;;5.07;2.35;;;;;;;9.10;100.00;100590.88;5081334;28;20028;-65
2023/11/14 03:48:00;;;;;;;7.85;2.20;;;;;;;9.18;100.00;100582.44;5083848;28;20028;-65
2023/11/14 03:50:25;;;;;;;3.20;1.33;;;;;;;9.24;100.00;100587.09;5083243;28;20131;-65
2023/11/14 03:52:50;;;;;;;5.47;1.90;;;;;;;9.27;100.00;100602.44;5082002;28;20054;-65
2023/11/14 03:55:16;;;;;;;1.90;1.55;;;;;;;9.27;100.00;100598.06;5087928;28;20032;-65
2023/11/14 03:57:41;;;;;;;3.78;1.92;;;;;;;9.28;100.00;100589.31;5092981;28;20039;-65
2023/11/14 04:00:09;;;;;;;2.13;0.90;;;;;;;9.28;100.00;100596.28;5091573;28;20036;-65
2023/11/14 04:02:38;;;;;;;4.32;1.67;;;;;;;9.28;100.00;100591.09;5098537;28;20020;-65
2023/11/14 04:05:04;;;;;;;3.42;1.75;;;;;;;9.22;100.00;100589.00;5095412;28;20040;-65
2023/11/14 04:07:30;;;;;;;3.78;1.23;;;;;;;9.23;100.00;100577.66;5082644;28;20395;-65
2023/11/14 04:09:56;;;;;;;3.08;1.20;;;;;;;9.27;100.00;100594.66;5082541;28;20028;-65
2023/11/14 04:12:22;;;;;;;3.65;1.10;;;;;;;9.29;100.00;100600.53;5083708;28;20089;-65
2023/11/14 04:14:48;;;;;;;3.20;1.23;;;;;;;9.31;100.00;100606.44;5084098;28;20071;-65
2023/11/14 04:17:14;;;;;;;3.28;0.98;;;;;;;9.33;100.00;100604.50;5082784;28;20386;-65
2023/11/14 04:19:39;;;;;;;3.00;1.17;;;;;;;9.34;100.00;100607.94;5081321;28;20036;-65
2023/11/14 04:22:05;;;;;;;2.83;1.20;;;;;;;9.32;100.00;100613.28;5083230;28;20044;-65
2023/11/14 04:24:33;;;;;;;3.20;1.13;;;;;;;9.31;100.00;100615.03;5083492;28;20027;-65
2023/11/14 04:27:00;;;;;;;2.88;1.42;;;;;;;9.29;100.00;100616.97;5084125;28;20063;-65
2023/11/14 04:29:25;;;;;;;2.38;0.75;;;;;;;9.30;100.00;100616.00;5082437;28;20032;-65
2023/11/14 04:31:51;;;;;;;4.00;1.10;;;;;;;9.31;100.00;100612.44;5082384;28;20055;-65
2023/11/14 04:34:17;;;;;;;3.55;1.23;;;;;;;9.31;100.00;100611.63;5081984;28;20511;-65
2023/11/14 04:36:43;;;;;;;5.53;1.42;;;;;;;9.29;100.00;100616.13;5081015;28;20032;-65
2023/11/14 04:39:08;;;;;;;2.97;1.30;;;;;;;9.26;100.00;100625.03;5082280;28;20035;-65
2023/11/14 04:41:34;;;;;;;3.92;1.70;;;;;;;9.29;100.00;100614.34;5080589;28;20028;-65
2023/11/14 04:44:00;;;;;;;5.80;1.20;;;;;;;9.34;100.00;100623.53;5082829;28;20039;-65
2023/11/14 04:46:26;;;;;;;5.00;1.73;;;;;;;9.33;100.00;100617.50;5082493;28;20065;-65
2023/11/14 04:48:51;;;;;;;3.72;1.30;;;;;;;9.37;100.00;100608.50;5082145;28;20024;-65
2023/11/14 04:51:17;;;;;;;4.72;1.65;;;;;;;9.41;100.00;100612.47;5080718;28;20079;-65
2023/11/14 04:53:42;;;;;;;5.40;1.35;;;;;;;9.42;100.00;100603.72;5081319;28;20174;-65
2023/11/14 04:56:08;;;;;;;2.03;1.00;;;;;;;9.42;100.00;100618.50;5081856;28;20027;-65
2023/11/14 04:58:33;;;;;;;3.75;1.33;;;;;;;9.44;100.00;100620.00;5081271;28;20062;-65
2023/11/14 05:01:00;;;;;;;5.20;1.17;;;;;;;9.43;100.00;100607.16;5081701;28;20119;-65
2023/11/14 05:03:25;;;;;;;2.97;1.27;;;;;;;9.39;100.00;100600.56;5080591;28;20036;-65
2023/11/14 05:05:51;;;;;;;5.22;0.88;;;;;;;9.44;100.00;100599.22;5080812;28;20658;-65
2023/11/14 05:08:16;;;;;;;2.85;1.40;;;;;;;9.49;100.00;100585.78;5083034;28;20111;-65
2023/11/14 05:10:42;;;;;;;4.40;1.55;;;;;;;9.48;100.00;100581.53;5079632;28;20055;-65
2023/11/14 05:13:07;;;;;;;4.20;1.58;;;;;;;9.47;100.00;100588.50;5080652;28;20036;-65
2023/11/14 05:15:33;;;;;;;2.75;1.13;;;;;;;9.50;100.00;100595.22;5081163;28;20039;-65
2023/11/14 05:17:58;;;;;;;1.55;1.00;;;;;;;9.51;100.00;100604.66;5082729;28;20036;-65
2023/11/14 05:20:23;;;;;;;7.07;1.15;;;;;;;9.49;100.00;100602.19;5081656;28;20057;-65
2023/11/14 05:22:49;;;;;;;5.18;2.15;;;;;;;9.46;100.00;100580.84;5079961;28;20048;-65
2023/11/14 05:25:14;;;;;;;5.57;2.08;;;;;;;9.46;100.00;100586.88;5081073;28;20032;-65
2023/11/14 05:27:40;;;;;;;3.78;1.48;;;;;;;9.51;100.00;100589.88;5080599;28;20035;-65
2023/11/14 05:30:10;;;;;;;4.03;1.85;;;;;;;9.53;100.00;100603.59;5080011;28;20024;-65
2023/11/14 05:32:36;;;;;;;3.92;1.27;;;;;;;9.55;100.00;100619.06;5079983;28;20134;-65
2023/11/14 05:35:02;;;;;;;2.08;1.05;;;;;;;9.55;100.00;100640.69;5081787;28;20352;-65
2023/11/14 05:37:28;;;;;;;3.72;2.38;;;;;;;9.55;100.00;100622.47;5080848;28;20031;-65
2023/11/14 05:39:55;;;;;;;3.78;1.60;;;;;;;9.54;100.00;100620.00;5080753;28;20074;-65
2023/11/14 05:42:21;;;;;;;4.53;1.63;;;;;;;9.53;100.00;100608.78;5080293;28;20399;-65
2023/11/14 05:44:47;;;;;;;2.88;1.50;;;;;;;9.50;100.00;100590.84;5079860;28;20038;-65
2023/11/14 05:47:14;;;;;;;4.32;2.20;;;;;;;9.49;100.00;100586.59;5081280;28;20028;-65
2023/11/14 05:49:40;;;;;;;3.90;1.13;;;;;;;9.49;100.00;100578.78;5079314;28;20490;-65
2023/11/14 05:52:06;;;;;;;5.45;1.95;;;;;;;9.50;100.00;100577.84;5080054;28;20040;-65
2023/11/14 05:54:31;;;;;;;3.17;1.50;;;;;;;9.49;100.00;100584.00;5080769;28;20131;-65
2023/11/14 05:56:58;;;;;;;3.17;1.58;;;;;;;9.50;100.00;100585.63;5081108;28;20489;-65
2023/11/14 05:59:24;;;;;;;4.40;1.85;;;;;;;9.49;100.00;100594.41;5081291;28;20070;-65
2023/11/14 06:01:50;;;;;;;5.00;1.75;;;;;;;9.47;100.00;100604.13;5082300;28;20519;-65
2023/11/14 06:04:15;;;;;;;4.75;1.85;;;;;;;9.50;100.00;100624.66;5081351;28;20028;-65
2023/11/14 06:06:40;;;;;;;3.63;1.58;;;;;;;9.51;100.00;100615.06;5080716;28;20486;-65
2023/11/14 06:09:09;;;;;;;4.63;1.40;;;;;;;9.49;100.00;100607.41;5080613;28;20373;-65
2023/11/14 06:11:35;;;;;;;4.75;1.33;;;;;;;9.49;100.00;100609.19;5080228;28;20100;-65
2023/11/14 06:14:01;;;;;;;4.68;1.98;;;;;;;9.47;100.00;100596.31;5080968;28;20491;-65
2023/11/14 06:16:26;;;;;;;4.47;1.33;;;;;;;9.49;100.00;100578.78;5080214;28;20032;-65
2023/11/14 06:18:52;;;;;;;4.20;1.73;;;;;;;9.51;100.00;100576.88;5080706;28;20059;-65
2023/11/14 06:21:18;;;;;;;3.72;1.35;;;;;;;9.54;100.00;100586.19;5081200;28;20051;-65
2023/11/14 06:23:43;;;;;;;6.63;1.60;;;;;;;9.53;100.00;100602.75;5079785;28;20031;-65
2023/11/14 06:26:08;;;;;;;4.50;1.20;;;;;;;9.57;100.00;100610.16;5080720;28;20435;-65
2023/11/14 06:28:34;;;;;;;2.78;1.50;;;;;;;9.57;100.00;100599.75;5080004;28;20043;-65
2023/11/14 06:30:59;;;;;;;2.63;1.58;;;;;;;9.60;100.00;100593.47;5080448;28;20044;-65
2023/11/14 06:33:25;;;;;;;4.13;1.52;;;;;;;9.56;100.00;100594.69;5087809;28;20032;-65
2023/11/14 06:35:52;;;;;;;4.05;1.73;;;;;;;9.58;100.00;100596.19;5090121;28;20032;-65
2023/11/14 06:38:18;;;;;;;5.00;2.03;;;;;;;9.57;100.00;100589.34;5089850;28;20122;-65
2023/11/14 06:40:45;;;;;;;4.97;1.80;;;;;;;9.60;100.00;100583.88;5090201;28;20032;-65
2023/11/14 06:43:11;;;;;;;4.05;1.65;;;;;;;9.67;100.00;100602.38;5089845;28;20039;-65
2023/11/14 06:45:36;;;;;;;4.20;1.77;;;;;;;9.67;100.00;100607.59;5090032;28;20036;-65
2023/11/14 06:48:03;;;;;;;4.45;2.30;;;;;;;9.69;100.00;100610.03;5089283;28;20062;-65
2023/11/14 06:50:28;;;;;;;2.95;1.80;;;;;;;9.72;100.00;100607.19;5080332;28;20131;-65
2023/11/14 06:52:54;;;;;;;3.28;1.70;;;;;;;9.76;100.00;100613.75;5080758;28;20036;-65
2023/11/14 06:55:19;;;;;;;2.88;1.25;;;;;;;9.77;100.00;100613.63;5083358;28;20039;-65
2023/11/14 06:57:45;;;;;;;4.05;1.65;;;;;;;9.79;100.00;100624.72;5082720;28;20373;-65
2023/11/14 07:00:11;;;;;;;3.35;1.13;;;;;;;9.78;100.00;100632.66;5084275;28;20024;-65
2023/11/14 07:02:36;;;;;;;1.83;1.15;;;;;;;9.76;100.00;100631.97;5084114;28;20128;-65
2023/11/14 07:05:02;;;;;;;3.33;1.20;;;;;;;9.77;100.00;100644.03;5083290;28;20040;-65
2023/11/14 07:07:29;;;;;;;4.68;1.27;;;;;;;9.77;100.00;100651.84;5083447;28;20429;-65
2023/11/14 07:09:54;;;;;;;2.92;1.27;;;;;;;9.73;100.00;100666.06;5083257;28;20032;-65
2023/11/14 07:12:20;;;;;;;4.53;1.27;;;;;;;9.66;100.00;100670.97;5083548;28;20040;-65
2023/11/14 07:14:45;;;;;;;3.58;1.02;;;;;;;9.62;100.00;100675.63;5083734;28;20097;-65
2023/11/14 07:17:11;;;;;;;4.78;1.20;;;;;;;9.63;100.00;100682.47;5083017;28;20028;-65
2023/11/14 07:19:36;;;;;;;3.45;0.88;;;;;;;9.61;100.00;100681.78;5083028;28;20024;-65
2023/11/14 07:22:02;;;;;;;4.75;1.52;;;;;;;9.62;100.00;100680.00;5083948;28;20041;-66
2023/11/14 07:24:27;;;;;;;4.28;1.42;;;;;;;9.58;100.00;100676.00;5083524;28;20024;-66
2023/11/14 07:26:53;;;;;;;3.15;1.30;;;;;;;9.60;100.00;100674.09;5083763;28;20069;-65
2023/11/14 07:29:19;;;;;;;4.78;1.67;;;;;;;9.65;100.00;100664.13;5083947;28;20031;-65
2023/11/14 07:31:45;;;;;;;4.10;1.67;;;;;;;9.69;100.00;100664.69;5083513;28;20029;-65
2023/11/14 07:34:11;;;;;;;4.15;1.88;;;;;;;9.74;100.00;100665.09;5084815;28;20136;-65
2023/11/14 07:36:37;;;;;;;5.07;1.80;;;;;;;9.79;100.00;100668.13;5083183;28;20035;-65
2023/11/14 07:39:03;;;;;;;8.52;1.90;;;;;;;9.81;100.00;100685.25;5083660;28;20032;-65
2023/11/14 07:41:28;;;;;;;4.75;1.77;;;;;;;9.83;100.00;100685.94;5083363;28;20036;-65
2023/11/14 07:43:54;;;;;;;6.88;2.42;;;;;;;9.80;100.00;100673.19;5083714;28;20032;-65
2023/11/14 07:46:21;;;;;;;5.95;2.22;;;;;;;9.82;100.00;100675.66;5083670;28;20043;-65
2023/11/14 07:48:47;;;;;;;5.18;1.90;;;;;;;9.83;100.00;100678.13;5082331;28;20127;-65
2023/11/14 07:51:13;;;;;;;4.47;1.88;;;;;;;9.88;100.00;100682.94;5082994;28;20032;-65
2023/11/14 07:53:38;;;;;;;6.32;2.10;;;;;;;9.92;100.00;100679.91;5083160;28;20505;-65
2023/11/14 07:56:04;;;;;;;6.72;2.33;;;;;;;9.94;100.00;100667.59;5083476;28;20032;-65
2023/11/14 07:58:29;;;;;;;3.17;1.52;;;;;;;9.96;100.00;100662.25;5083268;28;20024;-65
2023/11/14 08:00:58;;;;;;;6.18;2.28;;;;;;;9.96;100.00;100668.28;5083723;28;20552;-65
2023/11/14 08:03:24;;;;;;;6.13;1.98;;;;;;;9.97;100.00;100684.72;5083280;28;20119;-65
2023/11/14 08:05:49;;;;;;;6.35;2.15;;;;;;;9.97;100.00;100687.31;5080887;28;20040;-65
2023/11/14 08:08:15;;;;;;;10.70;2.97;;;;;;;9.94;100.00;100678.00;5082057;28;20024;-65
2023/11/14 08:10:41;;;;;;;6.05;2.83;;;;;;;9.99;100.00;100677.59;5082862;28;20069;-65
2023/11/14 08:13:09;;;;;;;8.07;3.20;;;;;;;10.01;100.00;100675.69;5083428;28;20028;-65
2023/11/14 08:15:35;;;;;;;6.38;2.63;;;;;;;10.04;100.00;100674.59;5083017;28;20505;-65
2023/11/14 08:18:00;;;;;;;4.97;2.53;;;;;;;10.06;100.00;100678.69;5083431;28;20028;-65
2023/11/14 08:20:29;;;;;;;8.50;3.08;;;;;;;10.06;100.00;100693.50;5082100;28;20037;-65
2023/11/14 08:22:54;;;;;;;7.28;3.15;;;;;;;10.05;100.00;100684.03;5082665;28;20139;-65
2023/11/14 08:25:20;;;;;;;9.00;3.17;;;;;;;10.04;100.00;100683.22;5083354;28;20043;-64
2023/11/14 08:27:48;;;;;;;7.03;2.97;;;;;;;10.06;100.00;100686.50;5083014;28;20054;-65
2023/11/14 08:30:15;;;;;;;4.28;2.42;;;;;;;10.08;100.00;100684.59;5082263;28;20031;-65
2023/11/14 08:32:41;;;;;;;6.60;2.95;;;;;;;10.07;100.00;100680.34;5082026;28;20357;-65
2023/11/14 08:35:07;;;;;;;7.68;2.63;;;;;;;10.11;100.00;100673.91;5084338;28;20044;-65
2023/11/14 08:37:33;;;;;;;6.85;2.22;;;;;;;10.13;100.00;100679.81;5081831;28;20042;-65
2023/11/14 08:39:58;;;;;;;11.80;4.15;;;;;;;10.14;100.00;100697.06;5091029;28;20024;-65
2023/11/14 08:42:24;;;;;;;7.07;3.58;;;;;;;10.20;100.00;100711.34;5092420;28;20031;-65
2023/11/14 08:44:50;;;;;;;9.68;3.50;;;;;;;10.21;100.00;100711.22;5085556;28;20114;-65
2023/11/14 08:47:16;;;;;;;7.43;3.42;;;;;;;10.16;100.00;100707.34;5081596;28;20086;-65
2023/11/14 08:49:41;;;;;;;9.38;4.18;;;;;;;10.21;100.00;100698.22;5081589;28;20032;-64
2023/11/14 08:52:07;;;;;;;15.15;3.78;;;;;;;10.23;100.00;100690.25;5083193;28;20448;-64
2023/11/14 08:54:33;;;;;;;9.27;3.70;;;;;;;10.27;100.00;100702.03;5083650;28;20032;-64
2023/11/14 08:56:58;;;;;;;7.53;3.38;;;;;;;10.27;100.00;100715.88;5084217;28;20093;-64
2023/11/14 08:59:24;;;;;;;6.45;3.55;;;;;;;10.29;100.00;100708.78;5083988;28;20035;-64
2023/11/14 09:01:50;;;;;;;8.93;4.45;;;;;;;10.29;100.00;100703.56;5084350;28;20163;-63
2023/11/14 09:04:17;;;;;;;12.02;4.60;;;;;;;10.27;100.00;100715.06;5085176;28;20032;-65
2023/11/14 09:06:43;;;;;;;6.10;2.92;;;;;;;10.30;100.00;100715.63;5082449;28;20047;-65
2023/11/14 09:09:09;;;;;;;7.50;3.58;;;;;;;10.31;100.00;100721.66;5083813;28;20032;-65
2023/11/14 09:11:35;;;;;;;4.57;3.20;;;;;;;10.29;100.00;100731.38;5082794;28;20495;-65
2023/11/14 09:14:02;;;;;;;6.90;3.42;;;;;;;10.28;100.00;100733.16;5086343;28;20044;-65
2023/11/14 09:16:28;;;;;;;8.90;3.35;;;;;;;10.28;100.00;100716.72;5091160;28;20042;-65
2023/11/14 09:18:58;;;;;;;11.30;4.68;;;;;;;10.28;100.00;100722.75;5091168;28;20024;-65
2023/11/14 09:21:24;;;;;;;11.82;3.88;;;;;;;10.33;100.00;100742.34;5091440;28;20035;-64
2023/11/14 09:23:50;;;;;;;5.95;2.97;;;;;;;10.37;100.00;100754.16;5089233;28;20483;-64
2023/11/14 09:26:16;;;;;;;6.38;3.33;;;;;;;10.36;100.00;100749.91;5089686;28;20047;-64
2023/11/14 09:28:41;;;;;;;8.40;4.13;;;;;;;10.36;100.00;100755.09;5089804;28;20585;-64
2023/11/14 09:31:08;;;;;;;15.75;3.92;;;;;;;10.34;100.00;100749.22;5091891;28;20081;-64
2023/11/14 09:33:35;;;;;;;7.10;3.92;;;;;;;10.32;100.00;100748.53;5090835;28;20418;-64
2023/11/14 09:36:01;;;;;;;8.70;4.18;;;;;;;10.36;100.00;100755.09;5091914;28;20037;-64
2023/11/14 09:38:26;;;;;;;10.32;5.10;;;;;;;10.37;100.00;100754.16;5091494;28;20917;-64
2023/11/14 09:40:52;;;;;;;9.85;4.22;;;;;;;10.38;100.00;100741.00;5090715;28;20028;-64
2023/11/14 09:43:17;;;;;;;14.02;5.60;;;;;;;10.38;100.00;100740.16;5092723;28;20020;-64
2023/11/14 09:45:45;;;;;;;10.48;5.20;;;;;;;10.38;100.00;100738.38;5090147;28;20032;-64
2023/11/14 09:48:11;;;;;;;13.20;6.13;;;;;;;10.39;100.00;100728.78;5091692;28;20028;-64
2023/11/14 09:50:41;;;;;;;11.52;5.18;;;;;;;10.38;100.00;100725.34;5090149;28;20383;-64
2023/11/14 09:53:07;;;;;;;11.05;5.10;;;;;;;10.40;100.00;100718.19;5091601;28;20027;-64
2023/11/14 09:55:33;;;;;;;9.85;5.15;;;;;;;10.42;100.00;100705.03;5089328;28;20044;-64
2023/11/14 09:58:01;;;;;;;10.60;5.05;;;;;;;10.40;100.00;100691.38;5090582;28;20023;-64
2023/11/14 10:00:28;;;;;;;11.20;5.93;;;;;;;10.42;100.00;100684.19;5089811;28;20028;-64
2023/11/14 10:02:56;;;;;;;14.98;6.40;;;;;;;10.48;100.00;100679.25;5089600;28;20027;-64
2023/11/14 10:05:22;;;;;;;14.50;6.13;;;;;;;10.54;100.00;100685.72;5090334;28;20031;-64
2023/11/14 10:07:49;;;;;;;12.65;6.70;;;;;;;10.59;100.00;100693.94;5089589;28;20032;-64
2023/11/14 10:10:16;;;;;;;17.88;6.13;;;;;;;10.64;100.00;100683.91;5090290;28;20114;-64
2023/11/14 10:12:41;;;;;;;22.80;9.27;;;;;;;10.69;100.00;100670.47;5090274;28;20037;-64
2023/11/14 10:15:07;;;;;;;17.58;8.50;;;;;;;10.76;100.00;100675.00;5089990;28;20036;-65
2023/11/14 10:17:40;;;;;;;21.15;10.18;;;;;;;10.81;100.00;100667.56;5090179;28;20111;-64
2023/11/14 10:20:07;;;;;;;19.73;9.45;;;;;;;10.87;100.00;100658.38;5087735;28;20400;-64
2023/11/14 10:22:34;;;;;;;18.52;9.82;;;;;;;10.89;100.00;100654.63;5090570;28;20066;-64
2023/11/14 10:25:00;;;;;;;18.45;10.57;;;;;;;10.92;100.00;100650.91;5085599;28;20089;-65
2023/11/14 10:27:31;;;;;;;23.42;9.70;;;;;;;10.96;100.00;100644.47;5081566;28;20115;-65
2023/11/14 10:29:57;;;;;;;21.70;10.45;;;;;;;11.03;100.00;100629.88;5083696;28;20094;-64
2023/11/14 10:32:23;;;;;;;20.98;10.43;;;;;;;11.05;100.00;100640.19;5082934;28;20115;-65
2023/11/14 10:34:49;;;;;;;19.73;10.88;;;;;;;11.06;100.00;100637.44;5085219;28;20069;-65
2023/11/14 10:37:31;;;;;;;19.75;10.98;;;;;;;11.12;100.00;100634.25;5089683;28;20488;-64
2023/11/14 10:39:57;;;;;;;20.08;11.10;;;;;;;11.18;100.00;100610.22;5087391;28;20032;-64
2023/11/14 10:42:24;;;;;;;19.85;10.43;;;;;;;11.20;100.00;100602.25;5085234;28;20123;-64
2023/11/14 10:44:59;;;;;;;25.40;12.05;;;;;;;11.20;100.00;100591.81;5085203;28;20020;-64
2023/11/14 10:47:42;;;;;;;21.52;11.35;;;;;;;11.19;100.00;100583.16;5087698;28;20043;-64
2023/11/14 10:50:31;;;;;;;18.98;11.50;;;;;;;11.19;100.00;100580.56;5084482;28;20024;-64
2023/11/14 10:52:57;;;;;;;29.75;13.15;;;;;;;11.20;100.00;100615.28;5089932;28;20040;-64
2023/11/14 10:55:24;;;;;;;30.20;15.23;;;;;;;11.19;100.00;100632.72;5086962;28;20047;-64
2023/11/14 10:57:51;;;;;;;27.88;13.50;;;;;;;11.18;100.00;100638.06;5086896;28;20353;-64
2023/11/14 11:00:24;;;;;;;23.85;11.73;;;;;;;11.15;100.00;100635.75;5084096;28;20088;-64
2023/11/14 11:02:52;;;;;;;19.90;10.90;;;;;;;11.16;100.00;100627.78;5087764;28;20102;-64
2023/11/14 11:05:28;;;;;;;13.73;8.15;;;;;;;11.03;100.00;100629.06;5082328;28;20083;-64
2023/11/14 11:07:53;;;;;;;;;;;;;;;10.94;100.00;100634.16;5087392;28;20056;-64
2023/11/14 11:10:19;;;;;;;6.97;4.23;;;;;;;10.96;100.00;100636.63;5089538;28;19993;-64
2023/11/14 11:12:46;;;;;;;8.38;3.17;;;;;;;10.85;100.00;100635.06;5084074;28;20033;-64
2023/11/14 11:15:11;;;;;;;12.02;3.20;;;;;;;10.88;100.00;100632.13;5084998;28;20077;-64
2023/11/14 11:17:46;;;;;;;6.07;2.95;;;;;;;10.95;100.00;100625.38;5087765;28;20028;-64